Time,TemperatureF,DewpointF,PressureIn,WindDirection,WindDirectionDegrees,WindSpeedMPH,WindSpeedGustMPH,Humidity,HourlyPrecipIn,Conditions,Clouds,dailyrainin,SoftwareType,DateUTC
2013-01-22 00:05:00,18.0,13.7,30.47,ESE,103,9.0,10.0,83,0.00,,,0.00,Wunderground v.1.15,2013-01-22 06:05:00,
2013-01-22 00:11:00,18.0,13.7,30.47,ESE,112,9.0,12.0,83,0.00,,,0.00,Wunderground v.1.15,2013-01-22 06:11:00,
2013-01-22 00:16:00,17.9,13.6,30.47,ESE,112,9.0,12.0,83,0.00,,,0.00,Wunderground v.1.15,2013-01-22 06:16:00,
2013-01-22 00:22:00,17.9,13.6,30.46,ESE,113,7.0,8.0,83,0.00,,,0.00,Wunderground v.1.15,2013-01-22 06:22:00,
2013-01-22 00:27:00,17.9,13.6,30.46,ESE,119,7.0,10.0,83,0.00,,,0.00,Wunderground v.1.15,2013-01-22 06:27:00,
2013-01-22 00:32:00,17.9,13.6,30.46,ESE,119,8.0,8.0,83,0.00,,,0.00,Wunderground v.1.15,2013-01-22 06:32:00,
2013-01-22 00:38:00,17.9,13.6,30.45,ESE,121,8.0,9.0,83,0.00,,,0.00,Wunderground v.1.15,2013-01-22 06:38:00,
2013-01-22 00:44:00,17.9,13.6,30.45,ESE,122,7.0,11.0,83,0.00,,,0.00,Wunderground v.1.15,2013-01-22 06:44:00,
2013-01-22 00:49:00,17.8,13.5,30.45,SE,125,7.0,11.0,83,0.00,,,0.00,Wunderground v.1.15,2013-01-22 06:49:00,
2013-01-22 00:55:00,17.8,13.5,30.45,SE,125,6.0,8.0,83,0.00,,,0.00,Wunderground v.1.15,2013-01-22 06:55:00,
2013-01-22 01:00:00,17.8,13.5,30.44,SE,127,6.0,9.0,83,0.00,,,0.00,Wunderground v.1.15,2013-01-22 07:00:00,
2013-01-22 01:06:00,17.7,13.4,30.44,SE,128,7.0,9.0,83,0.00,,,0.00,Wunderground v.1.15,2013-01-22 07:06:00,
2013-01-22 01:11:00,17.7,13.4,30.44,SE,128,7.0,7.0,83,0.00,,,0.00,Wunderground v.1.15,2013-01-22 07:11:00,
2013-01-22 01:16:00,17.7,13.4,30.44,SE,130,8.0,11.0,83,0.00,,,0.00,Wunderground v.1.15,2013-01-22 07:16:00,
2013-01-22 01:21:00,17.6,13.3,30.44,SE,134,9.0,11.0,83,0.00,,,0.00,Wunderground v.1.15,2013-01-22 07:21:00,
2013-01-22 01:27:00,17.6,13.3,30.44,SE,132,8.0,11.0,83,0.00,,,0.00,Wunderground v.1.15,2013-01-22 07:27:00,
2013-01-22 01:32:00,17.5,13.2,30.45,SE,130,6.0,7.0,83,0.00,,,0.00,Wunderground v.1.15,2013-01-22 07:32:00,
2013-01-22 01:38:00,17.5,13.2,30.45,SE,129,5.0,7.0,83,0.00,,,0.00,Wunderground v.1.15,2013-01-22 07:38:00,
2013-01-22 01:43:00,17.5,12.9,30.44,SE,125,6.0,7.0,82,0.00,,,0.00,Wunderground v.1.15,2013-01-22 07:43:00,
2013-01-22 01:49:00,17.4,12.8,30.43,ESE,121,7.0,9.0,82,0.00,,,0.00,Wunderground v.1.15,2013-01-22 07:49:00,
2013-01-22 01:54:00,17.3,12.7,30.43,ESE,115,7.0,10.0,82,0.00,,,0.00,Wunderground v.1.15,2013-01-22 07:54:00,
2013-01-22 02:00:00,17.3,12.7,30.43,ESE,115,8.0,10.0,82,0.00,,,0.00,Wunderground v.1.15,2013-01-22 08:00:00,
2013-01-22 02:05:00,17.2,12.6,30.45,ESE,113,7.0,10.0,82,0.00,,,0.00,Wunderground v.1.15,2013-01-22 08:05:00,
2013-01-22 02:11:00,17.1,12.6,30.45,ESE,111,6.0,8.0,82,0.00,,,0.00,Wunderground v.1.15,2013-01-22 08:11:00,
2013-01-22 02:16:00,17.0,12.5,30.45,ESE,111,6.0,8.0,82,0.00,,,0.00,Wunderground v.1.15,2013-01-22 08:16:00,
2013-01-22 02:22:00,16.9,12.4,30.45,ESE,111,4.0,5.0,82,0.00,,,0.00,Wunderground v.1.15,2013-01-22 08:22:00,
2013-01-22 02:27:00,16.8,12.3,30.45,ESE,111,5.0,7.0,82,0.00,,,0.00,Wunderground v.1.15,2013-01-22 08:27:00,
2013-01-22 02:33:00,16.7,12.2,30.44,ESE,112,6.0,9.0,82,0.00,,,0.00,Wunderground v.1.15,2013-01-22 08:33:00,
2013-01-22 02:38:00,16.6,12.1,30.44,ESE,116,8.0,10.0,82,0.00,,,0.00,Wunderground v.1.15,2013-01-22 08:38:00,
2013-01-22 02:43:00,16.5,11.7,30.43,ESE,116,7.0,8.0,81,0.00,,,0.00,Wunderground v.1.15,2013-01-22 08:43:00,
2013-01-22 02:49:00,16.3,11.5,30.43,SE,128,7.0,10.0,81,0.00,,,0.00,Wunderground v.1.15,2013-01-22 08:49:00,
2013-01-22 02:54:00,16.1,11.3,30.44,SE,128,8.0,8.0,81,0.00,,,0.00,Wunderground v.1.15,2013-01-22 08:54:00,
2013-01-22 02:59:00,16.0,11.2,30.44,SE,128,5.0,8.0,81,0.00,,,0.00,Wunderground v.1.15,2013-01-22 08:59:00,
2013-01-22 03:05:00,15.8,11.0,30.44,SE,128,6.0,7.0,81,0.00,,,0.00,Wunderground v.1.15,2013-01-22 09:05:00,
2013-01-22 03:11:00,15.7,10.9,30.44,SE,128,6.0,10.0,81,0.00,,,0.00,Wunderground v.1.15,2013-01-22 09:11:00,
2013-01-22 03:16:00,15.5,10.7,30.44,SE,128,7.0,10.0,81,0.00,,,0.00,Wunderground v.1.15,2013-01-22 09:16:00,
2013-01-22 03:22:00,15.3,10.5,30.44,SE,129,7.0,8.0,81,0.00,,,0.00,Wunderground v.1.15,2013-01-22 09:22:00,
2013-01-22 03:27:00,15.1,10.3,30.44,SE,129,7.0,8.0,81,0.00,,,0.00,Wunderground v.1.15,2013-01-22 09:27:00,
2013-01-22 03:33:00,14.9,10.1,30.43,SE,142,9.0,13.0,81,0.00,,,0.00,Wunderground v.1.15,2013-01-22 09:33:00,
2013-01-22 03:38:00,14.8,9.7,30.43,SE,141,10.0,13.0,80,0.00,,,0.00,Wunderground v.1.15,2013-01-22 09:38:00,
2013-01-22 03:43:00,14.7,9.6,30.43,SE,140,10.0,11.0,80,0.00,,,0.00,Wunderground v.1.15,2013-01-22 09:43:00,
2013-01-22 03:49:00,14.6,9.8,30.43,SE,140,9.0,11.0,81,0.00,,,0.00,Wunderground v.1.15,2013-01-22 09:49:00,
2013-01-22 03:54:00,14.5,9.7,30.43,SE,140,7.0,9.0,81,0.00,,,0.00,Wunderground v.1.15,2013-01-22 09:54:00,
2013-01-22 04:00:00,14.4,9.4,30.43,SE,140,7.0,7.0,80,0.00,,,0.00,Wunderground v.1.15,2013-01-22 10:00:00,
2013-01-22 04:05:00,14.3,9.5,30.43,SE,140,7.0,9.0,81,0.00,,,0.00,Wunderground v.1.15,2013-01-22 10:05:00,
2013-01-22 04:11:00,14.2,9.4,30.42,SE,139,6.0,8.0,81,0.00,,,0.00,Wunderground v.1.15,2013-01-22 10:11:00,
2013-01-22 04:16:00,14.0,9.2,30.42,SE,135,7.0,9.0,81,0.00,,,0.00,Wunderground v.1.15,2013-01-22 10:16:00,
2013-01-22 04:22:00,13.9,9.1,30.42,SE,132,8.0,8.0,81,0.00,,,0.00,Wunderground v.1.15,2013-01-22 10:22:00,
2013-01-22 04:27:00,13.8,9.0,30.42,SE,125,7.0,9.0,81,0.00,,,0.00,Wunderground v.1.15,2013-01-22 10:27:00,
2013-01-22 04:33:00,13.7,9.0,30.42,ESE,121,6.0,7.0,81,0.00,,,0.00,Wunderground v.1.15,2013-01-22 10:33:00,
2013-01-22 04:38:00,13.7,9.0,30.42,ESE,119,7.0,10.0,81,0.00,,,0.00,Wunderground v.1.15,2013-01-22 10:38:00,
2013-01-22 04:43:00,13.7,9.0,30.42,ESE,119,7.0,8.0,81,0.00,,,0.00,Wunderground v.1.15,2013-01-22 10:43:00,
2013-01-22 04:49:00,13.6,8.9,30.43,ESE,117,6.0,8.0,81,0.00,,,0.00,Wunderground v.1.15,2013-01-22 10:49:00,
2013-01-22 04:54:00,13.5,8.8,30.43,ESE,117,6.0,7.0,81,0.00,,,0.00,Wunderground v.1.15,2013-01-22 10:54:00,
2013-01-22 05:00:00,13.4,8.9,30.43,ESE,117,6.0,8.0,82,0.00,,,0.00,Wunderground v.1.15,2013-01-22 11:00:00,
2013-01-22 05:06:00,13.4,8.9,30.43,ESE,117,8.0,9.0,82,0.00,,,0.00,Wunderground v.1.15,2013-01-22 11:06:00,
2013-01-22 05:11:00,13.2,8.7,30.43,ESE,117,8.0,9.0,82,0.00,,,0.00,Wunderground v.1.15,2013-01-22 11:11:00,
2013-01-22 05:17:00,13.1,8.6,30.43,ESE,118,7.0,9.0,82,0.00,,,0.00,Wunderground v.1.15,2013-01-22 11:17:00,
2013-01-22 05:22:00,13.0,8.5,30.43,ESE,119,7.0,7.0,82,0.00,,,0.00,Wunderground v.1.15,2013-01-22 11:22:00,
2013-01-22 05:28:00,12.8,8.3,30.43,SE,124,7.0,10.0,82,0.00,,,0.00,Wunderground v.1.15,2013-01-22 11:28:00,
2013-01-22 05:33:00,12.7,8.2,30.43,SE,125,7.0,8.0,82,0.00,,,0.00,Wunderground v.1.15,2013-01-22 11:33:00,
2013-01-22 05:38:00,12.5,8.0,30.42,SE,126,8.0,9.0,82,0.00,,,0.00,Wunderground v.1.15,2013-01-22 11:38:00,
2013-01-22 05:44:00,12.3,7.9,30.42,SE,128,9.0,9.0,82,0.00,,,0.00,Wunderground v.1.15,2013-01-22 11:44:00,
2013-01-22 05:49:00,12.1,7.7,30.41,SE,133,9.0,10.0,82,0.00,,,0.00,Wunderground v.1.15,2013-01-22 11:49:00,
2013-01-22 05:55:00,11.9,7.5,30.42,SE,132,9.0,9.0,82,0.00,,,0.00,Wunderground v.1.15,2013-01-22 11:55:00,
2013-01-22 06:01:00,11.8,7.4,30.43,SE,130,6.0,6.0,82,0.00,,,0.00,Wunderground v.1.15,2013-01-22 12:01:00,
2013-01-22 06:06:00,11.7,7.3,30.43,SE,126,5.0,7.0,82,0.00,,,0.00,Wunderground v.1.15,2013-01-22 12:06:00,
2013-01-22 06:11:00,11.6,7.2,30.43,SE,126,5.0,6.0,82,0.00,,,0.00,Wunderground v.1.15,2013-01-22 12:11:00,
2013-01-22 06:17:00,11.6,7.2,30.43,SE,126,5.0,6.0,82,0.00,,,0.00,Wunderground v.1.15,2013-01-22 12:17:00,
2013-01-22 06:23:00,11.5,7.1,30.44,SE,126,5.0,5.0,82,0.00,,,0.00,Wunderground v.1.15,2013-01-22 12:23:00,
2013-01-22 06:28:00,11.5,7.1,30.44,SE,126,5.0,7.0,82,0.00,,,0.00,Wunderground v.1.15,2013-01-22 12:28:00,
2013-01-22 06:34:00,11.4,7.0,30.43,SE,126,6.0,7.0,82,0.00,,,0.00,Wunderground v.1.15,2013-01-22 12:34:00,
2013-01-22 06:40:00,11.3,6.9,30.43,SE,126,6.0,8.0,82,0.00,,,0.00,Wunderground v.1.15,2013-01-22 12:40:00,
2013-01-22 06:46:00,11.2,6.8,30.43,SE,126,7.0,9.0,82,0.00,,,0.00,Wunderground v.1.15,2013-01-22 12:46:00,
2013-01-22 06:52:00,11.0,6.6,30.43,SE,129,8.0,9.0,82,0.00,,,0.00,Wunderground v.1.15,2013-01-22 12:52:00,
2013-01-22 06:57:00,10.7,6.3,30.43,SE,130,9.0,11.0,82,0.00,,,0.00,Wunderground v.1.15,2013-01-22 12:57:00,
2013-01-22 07:03:00,10.6,6.2,30.45,SE,127,8.0,8.0,82,0.00,,,0.00,Wunderground v.1.15,2013-01-22 13:03:00,
2013-01-22 07:08:00,10.5,6.1,30.45,ESE,123,6.0,8.0,82,0.00,,,0.00,Wunderground v.1.15,2013-01-22 13:08:00,
2013-01-22 07:14:00,10.5,6.1,30.45,ESE,121,6.0,8.0,82,0.00,,,0.00,Wunderground v.1.15,2013-01-22 13:14:00,
2013-01-22 07:19:00,10.4,6.0,30.45,ESE,119,7.0,9.0,82,0.00,,,0.00,Wunderground v.1.15,2013-01-22 13:19:00,
2013-01-22 07:24:00,10.4,6.3,30.44,ESE,119,7.0,8.0,83,0.00,,,0.00,Wunderground v.1.15,2013-01-22 13:24:00,
2013-01-22 07:30:00,10.3,6.2,30.44,ESE,118,7.0,9.0,83,0.00,,,0.00,Wunderground v.1.15,2013-01-22 13:30:00,
2013-01-22 07:35:00,10.2,6.1,30.44,ESE,118,7.0,10.0,83,0.00,,,0.00,Wunderground v.1.15,2013-01-22 13:35:00,
2013-01-22 07:40:00,10.1,6.0,30.44,ESE,118,8.0,8.0,83,0.00,,,0.00,Wunderground v.1.15,2013-01-22 13:40:00,
2013-01-22 07:46:00,10.1,6.0,30.44,ESE,118,7.0,9.0,83,0.00,,,0.00,Wunderground v.1.15,2013-01-22 13:46:00,
2013-01-22 07:51:00,10.1,6.0,30.45,ESE,118,8.0,9.0,83,0.00,,,0.00,Wunderground v.1.15,2013-01-22 13:51:00,
2013-01-22 07:56:00,10.0,5.9,30.44,ESE,122,8.0,11.0,83,0.00,,,0.00,Wunderground v.1.15,2013-01-22 13:56:00,
2013-01-22 08:01:00,9.9,5.8,30.45,ESE,122,8.0,8.0,83,0.00,,,0.00,Wunderground v.1.15,2013-01-22 14:01:00,
2013-01-22 08:07:00,9.6,5.5,30.45,ESE,122,8.0,9.0,83,0.00,,,0.00,Wunderground v.1.15,2013-01-22 14:07:00,
2013-01-22 08:12:00,9.6,5.5,30.45,ESE,122,8.0,8.0,83,0.00,,,0.00,Wunderground v.1.15,2013-01-22 14:12:00,
2013-01-22 08:18:00,9.6,5.5,30.45,ESE,123,7.0,9.0,83,0.00,,,0.00,Wunderground v.1.15,2013-01-22 14:18:00,
2013-01-22 08:23:00,9.7,5.6,30.45,ESE,123,7.0,8.0,83,0.00,,,0.00,Wunderground v.1.15,2013-01-22 14:23:00,
2013-01-22 08:29:00,9.9,5.8,30.46,ESE,123,5.0,8.0,83,0.00,,,0.00,Wunderground v.1.15,2013-01-22 14:29:00,
2013-01-22 08:34:00,10.0,5.9,30.46,ESE,123,3.0,4.0,83,0.00,,,0.00,Wunderground v.1.15,2013-01-22 14:34:00,
2013-01-22 08:40:00,10.2,5.8,30.46,ESE,123,4.0,4.0,82,0.00,,,0.00,Wunderground v.1.15,2013-01-22 14:40:00,
2013-01-22 08:45:00,10.4,6.3,30.46,ESE,123,3.0,4.0,83,0.00,,,0.00,Wunderground v.1.15,2013-01-22 14:45:00,
2013-01-22 08:51:00,10.5,6.1,30.46,ESE,123,4.0,5.0,82,0.00,,,0.00,Wunderground v.1.15,2013-01-22 14:51:00,
2013-01-22 08:56:00,10.7,6.3,30.46,ESE,123,6.0,9.0,82,0.00,,,0.00,Wunderground v.1.15,2013-01-22 14:56:00,
2013-01-22 09:02:00,10.9,6.5,30.46,ESE,123,6.0,7.0,82,0.00,,,0.00,Wunderground v.1.15,2013-01-22 15:02:00,
2013-01-22 09:07:00,11.1,6.4,30.47,ESE,123,6.0,8.0,81,0.00,,,0.00,Wunderground v.1.15,2013-01-22 15:07:00,
2013-01-22 09:13:00,11.3,6.6,30.47,SE,130,5.0,8.0,81,0.00,,,0.00,Wunderground v.1.15,2013-01-22 15:13:00,
2013-01-22 09:18:00,11.4,6.7,30.47,SE,130,5.0,8.0,81,0.00,,,0.00,Wunderground v.1.15,2013-01-22 15:18:00,
2013-01-22 09:24:00,11.5,6.5,30.47,SE,135,5.0,8.0,80,0.00,,,0.00,Wunderground v.1.15,2013-01-22 15:24:00,
2013-01-22 09:29:00,11.7,6.7,30.47,SE,136,6.0,8.0,80,0.00,,,0.00,Wunderground v.1.15,2013-01-22 15:29:00,
2013-01-22 09:35:00,12.0,7.3,30.48,SE,136,6.0,8.0,81,0.00,,,0.00,Wunderground v.1.15,2013-01-22 15:35:00,
2013-01-22 09:40:00,12.2,7.2,30.47,SE,137,6.0,9.0,80,0.00,,,0.00,Wunderground v.1.15,2013-01-22 15:40:00,
2013-01-22 09:46:00,12.8,7.8,30.47,SE,141,8.0,11.0,80,0.00,,,0.00,Wunderground v.1.15,2013-01-22 15:46:00,
2013-01-22 09:52:00,13.0,8.0,30.48,SE,141,10.0,10.0,80,0.00,,,0.00,Wunderground v.1.15,2013-01-22 15:52:00,
2013-01-22 09:58:00,13.5,8.2,30.48,SE,130,8.0,10.0,79,0.00,,,0.00,Wunderground v.1.15,2013-01-22 15:58:00,
2013-01-22 10:03:00,14.0,8.7,30.48,SE,130,6.0,7.0,79,0.00,,,0.00,Wunderground v.1.15,2013-01-22 16:03:00,
2013-01-22 10:08:00,14.2,8.6,30.48,SE,129,7.0,9.0,78,0.00,,,0.00,Wunderground v.1.15,2013-01-22 16:08:00,
2013-01-22 10:13:00,14.3,8.7,30.48,SE,128,7.0,8.0,78,0.00,,,0.00,Wunderground v.1.15,2013-01-22 16:13:00,
2013-01-22 10:19:00,14.5,8.9,30.48,SE,138,7.0,8.0,78,0.00,,,0.00,Wunderground v.1.15,2013-01-22 16:19:00,
2013-01-22 10:24:00,14.3,8.4,30.48,SE,137,8.0,10.0,77,0.00,,,0.00,Wunderground v.1.15,2013-01-22 16:24:00,
2013-01-22 10:29:00,14.4,8.8,30.48,SE,140,8.0,10.0,78,0.00,,,0.00,Wunderground v.1.15,2013-01-22 16:29:00,
2013-01-22 10:35:00,14.9,9.3,30.49,SE,140,7.0,10.0,78,0.00,,,0.00,Wunderground v.1.15,2013-01-22 16:35:00,
2013-01-22 10:40:00,15.2,9.3,30.49,SE,140,6.0,6.0,77,0.00,,,0.00,Wunderground v.1.15,2013-01-22 16:40:00,
2013-01-22 10:46:00,15.2,9.3,30.50,SE,140,6.0,9.0,77,0.00,,,0.00,Wunderground v.1.15,2013-01-22 16:46:00,
2013-01-22 10:52:00,15.3,9.4,30.49,SE,140,5.0,6.0,77,0.00,,,0.00,Wunderground v.1.15,2013-01-22 16:52:00,
2013-01-22 10:57:00,15.5,9.6,30.50,SE,140,4.0,6.0,77,0.00,,,0.00,Wunderground v.1.15,2013-01-22 16:57:00,
2013-01-22 11:03:00,15.7,9.8,30.50,SE,140,4.0,5.0,77,0.00,,,0.00,Wunderground v.1.15,2013-01-22 17:03:00,
2013-01-22 11:08:00,16.2,10.3,30.50,SE,141,4.0,5.0,77,0.00,,,0.00,Wunderground v.1.15,2013-01-22 17:08:00,
2013-01-22 11:13:00,17.0,10.7,30.50,SE,140,4.0,6.0,76,0.00,,,0.00,Wunderground v.1.15,2013-01-22 17:13:00,
2013-01-22 11:19:00,17.3,10.7,30.49,SE,138,3.0,6.0,75,0.00,,,0.00,Wunderground v.1.15,2013-01-22 17:19:00,
2013-01-22 11:25:00,17.6,10.7,30.49,SE,139,3.0,4.0,74,0.00,,,0.00,Wunderground v.1.15,2013-01-22 17:25:00,
2013-01-22 11:30:00,17.8,10.9,30.49,SE,139,3.0,6.0,74,0.00,,,0.00,Wunderground v.1.15,2013-01-22 17:30:00,
2013-01-22 11:35:00,17.9,11.0,30.48,SE,139,4.0,6.0,74,0.00,,,0.00,Wunderground v.1.15,2013-01-22 17:35:00,
2013-01-22 11:41:00,18.1,10.9,30.48,SE,137,4.0,6.0,73,0.00,,,0.00,Wunderground v.1.15,2013-01-22 17:41:00,
2013-01-22 11:46:00,18.2,11.0,30.48,SE,137,4.0,6.0,73,0.00,,,0.00,Wunderground v.1.15,2013-01-22 17:46:00,
2013-01-22 11:52:00,18.2,11.3,30.47,SE,137,4.0,6.0,74,0.00,,,0.00,Wunderground v.1.15,2013-01-22 17:52:00,
2013-01-22 11:57:00,18.6,11.4,30.47,SE,136,5.0,8.0,73,0.00,,,0.00,Wunderground v.1.15,2013-01-22 17:57:00,
2013-01-22 12:03:00,18.9,12.0,30.46,SE,136,5.0,7.0,74,0.00,,,0.00,Wunderground v.1.15,2013-01-22 18:03:00,
2013-01-22 12:08:00,19.3,12.1,30.46,SSE,150,5.0,8.0,73,0.00,,,0.00,Wunderground v.1.15,2013-01-22 18:08:00,
2013-01-22 12:14:00,19.7,12.1,30.45,SE,143,5.0,9.0,72,0.00,,,0.00,Wunderground v.1.15,2013-01-22 18:14:00,
2013-01-22 12:19:00,19.9,12.3,30.45,SE,144,6.0,10.0,72,0.00,,,0.00,Wunderground v.1.15,2013-01-22 18:19:00,
2013-01-22 12:25:00,20.1,12.5,30.45,SSE,148,7.0,8.0,72,0.00,,,0.00,Wunderground v.1.15,2013-01-22 18:25:00,
2013-01-22 12:30:00,20.7,12.8,30.45,SSE,148,5.0,5.0,71,0.00,,,0.00,Wunderground v.1.15,2013-01-22 18:30:00,
2013-01-22 12:35:00,21.5,13.2,30.44,SSE,148,3.0,6.0,70,0.00,,,0.00,Wunderground v.1.15,2013-01-22 18:35:00,
2013-01-22 12:41:00,21.9,13.6,30.44,SSE,153,4.0,6.0,70,0.00,,,0.00,Wunderground v.1.15,2013-01-22 18:41:00,
2013-01-22 12:47:00,21.9,13.3,30.44,SSE,161,6.0,8.0,69,0.00,,,0.00,Wunderground v.1.15,2013-01-22 18:47:00,
2013-01-22 12:53:00,22.1,13.5,30.44,South,170,6.0,9.0,69,0.00,,,0.00,Wunderground v.1.15,2013-01-22 18:53:00,
2013-01-22 12:58:00,22.8,13.8,30.43,South,170,5.0,9.0,68,0.00,,,0.00,Wunderground v.1.15,2013-01-22 18:58:00,
2013-01-22 13:04:00,23.1,14.1,30.42,South,169,6.0,6.0,68,0.00,,,0.00,Wunderground v.1.15,2013-01-22 19:04:00,
2013-01-22 13:10:00,23.6,14.2,30.42,SSE,167,6.0,7.0,67,0.00,,,0.00,Wunderground v.1.15,2013-01-22 19:10:00,
2013-01-22 13:15:00,24.0,14.6,30.42,SSE,167,6.0,7.0,67,0.00,,,0.00,Wunderground v.1.15,2013-01-22 19:15:00,
2013-01-22 13:21:00,24.3,14.6,30.42,SSE,165,5.0,5.0,66,0.00,,,0.00,Wunderground v.1.15,2013-01-22 19:21:00,
2013-01-22 13:27:00,24.9,14.8,30.41,SSE,161,4.0,5.0,65,0.00,,,0.00,Wunderground v.1.15,2013-01-22 19:27:00,
2013-01-22 13:32:00,25.2,14.7,30.41,SSE,161,3.0,6.0,64,0.00,,,0.00,Wunderground v.1.15,2013-01-22 19:32:00,
2013-01-22 13:38:00,25.7,15.2,30.41,SSE,161,4.0,6.0,64,0.00,,,0.00,Wunderground v.1.15,2013-01-22 19:38:00,
2013-01-22 13:43:00,26.1,15.6,30.41,SSE,159,5.0,6.0,64,0.00,,,0.00,Wunderground v.1.15,2013-01-22 19:43:00,
2013-01-22 13:49:00,26.7,15.8,30.41,SSE,159,4.0,6.0,63,0.00,,,0.00,Wunderground v.1.15,2013-01-22 19:49:00,
2013-01-22 13:55:00,27.0,15.7,30.41,SSE,157,4.0,5.0,62,0.00,,,0.00,Wunderground v.1.15,2013-01-22 19:55:00,
2013-01-22 14:00:00,27.5,16.2,30.40,SSE,157,3.0,3.0,62,0.00,,,0.00,Wunderground v.1.15,2013-01-22 20:00:00,
2013-01-22 14:05:00,27.9,16.2,30.40,SSE,157,3.0,5.0,61,0.00,,,0.00,Wunderground v.1.15,2013-01-22 20:05:00,
2013-01-22 14:11:00,28.1,16.0,30.40,SSE,157,4.0,6.0,60,0.00,,,0.00,Wunderground v.1.15,2013-01-22 20:11:00,
2013-01-22 14:16:00,28.5,16.0,30.40,SSE,157,4.0,6.0,59,0.00,,,0.00,Wunderground v.1.15,2013-01-22 20:16:00,
2013-01-22 14:22:00,29.1,16.5,30.40,SSE,157,3.0,4.0,59,0.00,,,0.00,Wunderground v.1.15,2013-01-22 20:22:00,
2013-01-22 14:27:00,29.6,16.6,30.40,SSE,157,2.0,4.0,58,0.00,,,0.00,Wunderground v.1.15,2013-01-22 20:27:00,
2013-01-22 14:33:00,29.8,16.4,30.40,SSE,157,3.0,7.0,57,0.00,,,0.00,Wunderground v.1.15,2013-01-22 20:33:00,
2013-01-22 14:39:00,30.3,16.9,30.40,SSE,157,3.0,7.0,57,0.00,,,0.00,Wunderground v.1.15,2013-01-22 20:39:00,
2013-01-22 14:44:00,30.6,17.2,30.40,SSE,157,3.0,4.0,57,0.00,,,0.00,Wunderground v.1.15,2013-01-22 20:44:00,
2013-01-22 14:49:00,30.8,16.9,30.40,SSE,157,3.0,5.0,56,0.00,,,0.00,Wunderground v.1.15,2013-01-22 20:49:00,
2013-01-22 14:55:00,31.2,16.9,30.40,SSE,148,3.0,5.0,55,0.00,,,0.00,Wunderground v.1.15,2013-01-22 20:55:00,
2013-01-22 15:00:00,31.3,17.0,30.40,SE,146,5.0,5.0,55,0.00,,,0.00,Wunderground v.1.15,2013-01-22 21:00:00,
2013-01-22 15:06:00,31.5,17.2,30.39,SE,146,4.0,6.0,55,0.00,,,0.00,Wunderground v.1.15,2013-01-22 21:06:00,
2013-01-22 15:12:00,32.0,17.2,30.39,SE,137,3.0,6.0,54,0.00,,,0.00,Wunderground v.1.15,2013-01-22 21:12:00,
2013-01-22 15:18:00,32.1,17.3,30.40,SE,135,5.0,6.0,54,0.00,,,0.00,Wunderground v.1.15,2013-01-22 21:18:00,
2013-01-22 15:24:00,32.4,17.2,30.39,SE,135,3.0,4.0,53,0.00,,,0.00,Wunderground v.1.15,2013-01-22 21:24:00,
2013-01-22 15:29:00,32.6,17.3,30.39,SE,135,3.0,6.0,53,0.00,,,0.00,Wunderground v.1.15,2013-01-22 21:29:00,
2013-01-22 15:35:00,33.0,17.3,30.39,SE,135,4.0,7.0,52,0.00,,,0.00,Wunderground v.1.15,2013-01-22 21:35:00,
2013-01-22 15:36:00,33.0,17.3,30.39,SE,135,4.0,7.0,52,0.00,,,0.00,Wunderground v.1.15,2013-01-22 21:36:00,
2013-01-22 15:41:00,33.0,17.3,30.38,SE,135,5.0,5.0,52,0.00,,,0.00,Wunderground v.1.15,2013-01-22 21:41:00,
2013-01-22 15:47:00,33.3,17.5,30.38,SE,144,6.0,6.0,52,0.00,,,0.00,Wunderground v.1.15,2013-01-22 21:47:00,
2013-01-22 15:52:00,33.5,17.7,30.38,SE,144,4.0,5.0,52,0.00,,,0.00,Wunderground v.1.15,2013-01-22 21:52:00,
2013-01-22 15:57:00,33.7,17.5,30.38,SE,143,3.0,5.0,51,0.00,,,0.00,Wunderground v.1.15,2013-01-22 21:57:00,
2013-01-22 16:03:00,33.7,17.5,30.38,SE,138,4.0,5.0,51,0.00,,,0.00,Wunderground v.1.15,2013-01-22 22:03:00,
2013-01-22 16:08:00,33.8,17.6,30.38,SE,136,5.0,7.0,51,0.00,,,0.00,Wunderground v.1.15,2013-01-22 22:08:00,
2013-01-22 16:14:00,33.8,17.6,30.38,SE,132,5.0,7.0,51,0.00,,,0.00,Wunderground v.1.15,2013-01-22 22:14:00,
2013-01-22 16:19:00,33.6,17.4,30.38,SE,129,6.0,7.0,51,0.00,,,0.00,Wunderground v.1.15,2013-01-22 22:19:00,
2013-01-22 16:24:00,33.7,17.5,30.38,ESE,123,6.0,9.0,51,0.00,,,0.00,Wunderground v.1.15,2013-01-22 22:24:00,
2013-01-22 16:30:00,33.4,17.6,30.38,ESE,121,7.0,10.0,52,0.00,,,0.00,Wunderground v.1.15,2013-01-22 22:30:00,
2013-01-22 16:35:00,33.1,17.4,30.38,ESE,120,7.0,10.0,52,0.00,,,0.00,Wunderground v.1.15,2013-01-22 22:35:00,
2013-01-22 16:40:00,33.3,17.5,30.38,ESE,121,6.0,6.0,52,0.00,,,0.00,Wunderground v.1.15,2013-01-22 22:40:00,
2013-01-22 16:46:00,33.2,17.5,30.38,SE,139,7.0,10.0,52,0.00,,,0.00,Wunderground v.1.15,2013-01-22 22:46:00,
2013-01-22 16:51:00,33.0,17.3,30.38,SE,138,9.0,9.0,52,0.00,,,0.00,Wunderground v.1.15,2013-01-22 22:51:00,
2013-01-22 16:56:00,33.0,17.3,30.38,SE,140,7.0,9.0,52,0.00,,,0.00,Wunderground v.1.15,2013-01-22 22:56:00,
2013-01-22 17:02:00,32.8,17.5,30.38,SE,140,6.0,7.0,53,0.00,,,0.00,Wunderground v.1.15,2013-01-22 23:02:00,
2013-01-22 17:08:00,32.8,17.5,30.38,SE,140,6.0,8.0,53,0.00,,,0.00,Wunderground v.1.15,2013-01-22 23:08:00,
2013-01-22 17:13:00,32.7,17.4,30.38,SE,140,6.0,7.0,53,0.00,,,0.00,Wunderground v.1.15,2013-01-22 23:13:00,
2013-01-22 17:19:00,32.5,17.2,30.38,SE,140,7.0,9.0,53,0.00,,,0.00,Wunderground v.1.15,2013-01-22 23:19:00,
2013-01-22 17:25:00,32.3,17.1,30.38,SSE,148,8.0,10.0,53,0.00,,,0.00,Wunderground v.1.15,2013-01-22 23:25:00,
2013-01-22 17:30:00,32.0,17.2,30.38,SSE,149,8.0,8.0,54,0.00,,,0.00,Wunderground v.1.15,2013-01-22 23:30:00,
2013-01-22 17:36:00,31.7,17.4,30.38,SSE,151,8.0,12.0,55,0.00,,,0.00,Wunderground v.1.15,2013-01-22 23:36:00,
2013-01-22 17:42:00,31.3,17.0,30.38,SSE,155,9.0,10.0,55,0.00,,,0.00,Wunderground v.1.15,2013-01-22 23:42:00,
2013-01-22 17:48:00,31.0,17.1,30.38,SSE,155,9.0,10.0,56,0.00,,,0.00,Wunderground v.1.15,2013-01-22 23:48:00,
2013-01-22 17:53:00,30.6,16.7,30.38,SSE,154,8.0,9.0,56,0.00,,,0.00,Wunderground v.1.15,2013-01-22 23:53:00,
2013-01-22 17:59:00,30.2,16.8,30.38,SSE,150,8.0,9.0,57,0.00,,,0.00,Wunderground v.1.15,2013-01-22 23:59:00,
2013-01-22 18:04:00,30.0,16.6,30.38,SSE,150,8.0,10.0,57,0.00,,,0.00,Wunderground v.1.15,2013-01-23 00:04:00,
2013-01-22 18:10:00,30.0,16.6,30.38,SSE,150,8.0,8.0,57,0.00,,,0.00,Wunderground v.1.15,2013-01-23 00:10:00,
2013-01-22 18:15:00,29.6,16.2,30.39,SSE,148,7.0,8.0,57,0.00,,,0.00,Wunderground v.1.15,2013-01-23 00:15:00,
2013-01-22 18:21:00,29.3,16.3,30.39,SSE,148,5.0,5.0,58,0.00,,,0.00,Wunderground v.1.15,2013-01-23 00:21:00,
2013-01-22 18:26:00,29.0,16.1,30.39,SE,146,6.0,7.0,58,0.00,,,0.00,Wunderground v.1.15,2013-01-23 00:26:00,
2013-01-22 18:32:00,28.8,16.3,30.39,SE,145,6.0,6.0,59,0.00,,,0.00,Wunderground v.1.15,2013-01-23 00:32:00,
2013-01-22 18:37:00,28.5,16.0,30.39,SE,144,5.0,7.0,59,0.00,,,0.00,Wunderground v.1.15,2013-01-23 00:37:00,
2013-01-22 18:43:00,28.1,16.0,30.40,SE,144,6.0,6.0,60,0.00,,,0.00,Wunderground v.1.15,2013-01-23 00:43:00,
2013-01-22 18:48:00,27.9,15.8,30.40,SE,141,6.0,7.0,60,0.00,,,0.00,Wunderground v.1.15,2013-01-23 00:48:00,
2013-01-22 18:54:00,27.6,15.9,30.40,SE,136,7.0,7.0,61,0.00,,,0.00,Wunderground v.1.15,2013-01-23 00:54:00,
2013-01-22 18:59:00,27.3,15.6,30.40,SE,135,7.0,7.0,61,0.00,,,0.00,Wunderground v.1.15,2013-01-23 00:59:00,
2013-01-22 19:05:00,27.0,15.7,30.40,SE,135,6.0,9.0,62,0.00,,,0.00,Wunderground v.1.15,2013-01-23 01:05:00,
2013-01-22 19:10:00,26.9,15.6,30.39,SE,134,7.0,8.0,62,0.00,,,0.00,Wunderground v.1.15,2013-01-23 01:10:00,
2013-01-22 19:15:00,26.6,15.7,30.40,SE,134,8.0,8.0,63,0.00,,,0.00,Wunderground v.1.15,2013-01-23 01:15:00,
2013-01-22 19:21:00,26.3,15.4,30.40,SE,132,8.0,8.0,63,0.00,,,0.00,Wunderground v.1.15,2013-01-23 01:21:00,
2013-01-22 19:27:00,26.0,15.5,30.40,SE,132,7.0,8.0,64,0.00,,,0.00,Wunderground v.1.15,2013-01-23 01:27:00,
2013-01-22 19:32:00,25.8,15.3,30.40,SE,132,6.0,7.0,64,0.00,,,0.00,Wunderground v.1.15,2013-01-23 01:32:00,
2013-01-22 19:38:00,25.5,15.4,30.40,SE,132,6.0,8.0,65,0.00,,,0.00,Wunderground v.1.15,2013-01-23 01:38:00,
2013-01-22 19:44:00,25.3,15.2,30.40,SE,130,7.0,9.0,65,0.00,,,0.00,Wunderground v.1.15,2013-01-23 01:44:00,
2013-01-22 19:50:00,25.3,15.2,30.40,SE,130,8.0,8.0,65,0.00,,,0.00,Wunderground v.1.15,2013-01-23 01:50:00,
2013-01-22 19:55:00,25.1,15.3,30.40,SE,130,7.0,8.0,66,0.00,,,0.00,Wunderground v.1.15,2013-01-23 01:55:00,
2013-01-22 20:01:00,24.9,15.1,30.41,SE,130,6.0,6.0,66,0.00,,,0.00,Wunderground v.1.15,2013-01-23 02:01:00,
2013-01-22 20:07:00,24.8,15.0,30.42,SE,130,5.0,6.0,66,0.00,,,0.00,Wunderground v.1.15,2013-01-23 02:07:00,
2013-01-22 20:12:00,24.8,15.4,30.42,SE,130,4.0,4.0,67,0.00,,,0.00,Wunderground v.1.15,2013-01-23 02:12:00,
2013-01-22 20:18:00,24.9,15.5,30.41,SE,130,4.0,5.0,67,0.00,,,0.00,Wunderground v.1.15,2013-01-23 02:18:00,
2013-01-22 20:23:00,24.8,15.4,30.41,SE,130,4.0,4.0,67,0.00,,,0.00,Wunderground v.1.15,2013-01-23 02:23:00,
2013-01-22 20:28:00,24.8,15.4,30.42,SE,130,3.0,4.0,67,0.00,,,0.00,Wunderground v.1.15,2013-01-23 02:28:00,
2013-01-22 20:34:00,24.5,15.1,30.41,SE,130,3.0,4.0,67,0.00,,,0.00,Wunderground v.1.15,2013-01-23 02:34:00,
2013-01-22 20:39:00,24.4,15.0,30.41,SE,130,4.0,6.0,67,0.00,,,0.00,Wunderground v.1.15,2013-01-23 02:39:00,
2013-01-22 20:45:00,24.1,15.1,30.41,SE,128,5.0,6.0,68,0.00,,,0.00,Wunderground v.1.15,2013-01-23 02:45:00,
2013-01-22 20:51:00,24.2,15.2,30.40,SE,124,5.0,6.0,68,0.00,,,0.00,Wunderground v.1.15,2013-01-23 02:51:00,
2013-01-22 20:56:00,24.1,15.1,30.41,SE,124,6.0,7.0,68,0.00,,,0.00,Wunderground v.1.15,2013-01-23 02:56:00,
2013-01-22 21:02:00,24.2,15.5,30.41,SE,124,6.0,6.0,69,0.00,,,0.00,Wunderground v.1.15,2013-01-23 03:02:00,
2013-01-22 21:07:00,24.3,15.6,30.41,SE,124,5.0,6.0,69,0.00,,,0.00,Wunderground v.1.15,2013-01-23 03:07:00,
2013-01-22 21:13:00,24.3,15.6,30.41,SE,124,6.0,7.0,69,0.00,,,0.00,Wunderground v.1.15,2013-01-23 03:13:00,
2013-01-22 21:18:00,24.3,15.3,30.41,SE,124,6.0,7.0,68,0.00,,,0.00,Wunderground v.1.15,2013-01-23 03:18:00,
2013-01-22 21:24:00,24.2,15.2,30.41,SE,124,5.0,6.0,68,0.00,,,0.00,Wunderground v.1.15,2013-01-23 03:24:00,
2013-01-22 21:29:00,23.8,15.1,30.41,SE,124,4.0,6.0,69,0.00,,,0.00,Wunderground v.1.15,2013-01-23 03:29:00,
2013-01-22 21:34:00,23.8,15.1,30.41,SE,124,4.0,5.0,69,0.00,,,0.00,Wunderground v.1.15,2013-01-23 03:34:00,
2013-01-22 21:40:00,23.6,14.9,30.41,SE,124,4.0,4.0,69,0.00,,,0.00,Wunderground v.1.15,2013-01-23 03:40:00,
2013-01-22 21:45:00,23.6,15.2,30.41,SE,124,4.0,5.0,70,0.00,,,0.00,Wunderground v.1.15,2013-01-23 03:45:00,
2013-01-22 21:51:00,23.6,14.9,30.41,SE,124,4.0,5.0,69,0.00,,,0.00,Wunderground v.1.15,2013-01-23 03:51:00,
2013-01-22 21:56:00,23.5,15.1,30.41,SE,124,4.0,5.0,70,0.00,,,0.00,Wunderground v.1.15,2013-01-23 03:56:00,
2013-01-22 22:02:00,23.3,15.0,30.41,SE,124,4.0,4.0,70,0.00,,,0.00,Wunderground v.1.15,2013-01-23 04:02:00,
2013-01-22 22:08:00,23.3,15.0,30.41,SE,124,3.0,5.0,70,0.00,,,0.00,Wunderground v.1.15,2013-01-23 04:08:00,
2013-01-22 22:14:00,23.2,14.9,30.41,SE,124,2.0,3.0,70,0.00,,,0.00,Wunderground v.1.15,2013-01-23 04:14:00,
2013-01-22 22:19:00,23.0,14.7,30.42,SE,124,2.0,3.0,70,0.00,,,0.00,Wunderground v.1.15,2013-01-23 04:19:00,
2013-01-22 22:25:00,22.8,14.5,30.41,SE,124,2.0,3.0,70,0.00,,,0.00,Wunderground v.1.15,2013-01-23 04:25:00,
2013-01-22 22:30:00,22.5,14.5,30.41,SE,124,3.0,4.0,71,0.00,,,0.00,Wunderground v.1.15,2013-01-23 04:30:00,
2013-01-22 22:36:00,22.5,14.8,30.41,SE,124,4.0,4.0,72,0.00,,,0.00,Wunderground v.1.15,2013-01-23 04:36:00,
2013-01-22 22:42:00,22.5,14.5,30.41,SE,124,4.0,4.0,71,0.00,,,0.00,Wunderground v.1.15,2013-01-23 04:42:00,
2013-01-22 22:48:00,22.1,14.1,30.41,SE,124,4.0,5.0,71,0.00,,,0.00,Wunderground v.1.15,2013-01-23 04:48:00,
2013-01-22 22:54:00,21.8,14.2,30.41,SE,124,4.0,5.0,72,0.00,,,0.00,Wunderground v.1.15,2013-01-23 04:54:00,
2013-01-22 23:00:00,21.8,14.5,30.41,SE,124,5.0,5.0,73,0.00,,,0.00,Wunderground v.1.15,2013-01-23 05:00:00,
2013-01-22 23:03:00,21.9,14.6,30.41,SE,124,4.0,5.0,73,0.00,,,0.00,Wunderground v.1.15,2013-01-23 05:03:00,
2013-01-22 23:04:00,21.9,14.6,30.41,SE,124,4.0,5.0,73,0.00,,,0.00,Wunderground v.1.15,2013-01-23 05:04:00,
2013-01-22 23:09:00,21.8,14.2,30.42,SE,124,5.0,6.0,72,0.00,,,0.00,Wunderground v.1.15,2013-01-23 05:09:00,
2013-01-22 23:13:00,21.6,14.3,30.42,SE,124,5.0,6.0,73,0.00,,,0.00,Wunderground v.1.15,2013-01-23 05:13:00,
2013-01-22 23:18:00,21.7,14.4,30.42,SE,124,6.0,6.0,73,0.00,,,0.00,Wunderground v.1.15,2013-01-23 05:18:00,
2013-01-22 23:24:00,22.0,14.7,30.42,SE,124,5.0,6.0,73,0.00,,,0.00,Wunderground v.1.15,2013-01-23 05:24:00,
2013-01-22 23:29:00,22.2,14.9,30.42,SE,124,4.0,6.0,73,0.00,,,0.00,Wunderground v.1.15,2013-01-23 05:29:00,
2013-01-22 23:35:00,22.6,15.2,30.41,SE,124,2.0,4.0,73,0.00,,,0.00,Wunderground v.1.15,2013-01-23 05:35:00,
2013-01-22 23:40:00,22.7,15.0,30.42,SE,124,2.0,2.0,72,0.00,,,0.00,Wunderground v.1.15,2013-01-23 05:40:00,
2013-01-22 23:46:00,22.9,15.2,30.42,SE,124,3.0,3.0,72,0.00,,,0.00,Wunderground v.1.15,2013-01-23 05:46:00,
2013-01-22 23:51:00,23.0,15.0,30.42,SE,124,3.0,3.0,71,0.00,,,0.00,Wunderground v.1.15,2013-01-23 05:51:00,
2013-01-22 23:57:00,23.1,15.1,30.42,SE,124,2.0,3.0,71,0.00,,,0.00,Wunderground v.1.15,2013-01-23 05:57:00,